createdAt,value
2023-03-05T03:46:51.411Z,39.27
2023-03-05T03:49:24.862Z,38.20
2023-03-05T03:51:54.719Z,37.90
2023-03-05T03:54:22.758Z,35.40
2023-03-05T03:56:49.823Z,31.33
2023-03-05T03:59:16.907Z,35.50
2023-03-05T04:01:43.753Z,39.33
2023-03-05T04:04:13.057Z,36.23
2023-03-05T06:09:10.058Z,29.20
2023-03-05T06:11:38.599Z,33.27
2023-03-05T06:14:05.553Z,29.63
2023-03-05T06:16:32.527Z,32.30
2023-03-05T06:19:00.396Z,36.23
2023-03-05T06:21:27.340Z,31.07
2023-03-05T06:23:54.304Z,31.93
2023-03-05T06:26:22.565Z,34.53
2023-03-05T06:28:49.423Z,33.27
2023-03-05T06:31:22.435Z,31.87
2023-03-05T06:33:49.652Z,29.67
2023-03-05T06:36:19.149Z,30.43
2023-03-05T06:41:18.461Z,33.90
2023-03-05T06:43:47.166Z,28.60
2023-03-05T06:46:20.055Z,35.60
2023-03-05T06:48:47.935Z,27.50
2023-03-05T06:51:24.859Z,26.17
2023-03-05T06:53:53.447Z,31.80
2023-03-05T06:56:21.336Z,32.72
2023-03-05T06:58:50.867Z,28.93
2023-03-05T07:03:49.945Z,26.50
2023-03-05T07:06:16.953Z,27.77
2023-03-05T07:08:47.369Z,34.37
2023-03-05T07:11:19.407Z,28.83
2023-03-05T07:13:49.076Z,34.13
2023-03-05T07:16:22.704Z,31.10
2023-03-05T07:18:49.740Z,32.10
2023-03-05T07:21:20.130Z,29.43
2023-03-05T07:23:47.425Z,29.37
2023-03-05T07:26:14.725Z,31.07
2023-03-05T07:28:43.690Z,32.20
2023-03-05T07:31:27.590Z,28.98
2023-03-05T07:33:54.606Z,30.73
2023-03-05T07:36:21.711Z,33.27
2023-03-05T07:38:48.707Z,31.77
2023-03-05T07:41:21.452Z,33.30
2023-03-05T07:43:50.081Z,35.90
2023-03-05T07:46:19.629Z,33.97
2023-03-05T07:48:46.695Z,31.03
2023-03-05T07:51:17.237Z,32.13
2023-03-05T07:53:45.435Z,30.97
2023-03-05T07:56:12.761Z,31.50
2023-03-05T07:58:39.687Z,38.23
2023-03-05T08:01:14.110Z,35.57
2023-03-05T08:03:42.472Z,32.57
2023-03-05T08:06:10.888Z,35.47
2023-03-05T08:08:38.136Z,36.47
2023-03-05T08:11:11.902Z,31.63
2023-03-05T08:13:39.488Z,35.83
2023-03-05T08:16:15.688Z,33.37
2023-03-05T08:18:42.924Z,33.27
2023-03-05T08:21:27.640Z,37.40
2023-03-05T08:23:54.469Z,34.37
2023-03-05T08:26:23.425Z,35.33
2023-03-05T08:28:51.216Z,35.13
2023-03-05T08:31:21.428Z,36.57
2023-03-05T08:33:50.080Z,36.47
2023-03-05T08:36:16.973Z,35.60
2023-03-05T08:38:44.896Z,36.03
2023-03-05T08:41:11.892Z,34.27
2023-03-05T08:43:39.267Z,37.73
2023-03-05T08:46:06.500Z,33.17
2023-03-05T08:48:34.695Z,34.30
2023-03-05T08:51:13.909Z,33.20
2023-03-05T08:53:42.418Z,33.20
2023-03-05T08:56:09.547Z,32.55
2023-03-05T08:58:37.092Z,37.53
2023-03-05T09:01:04.355Z,39.77
2023-03-05T09:03:31.339Z,37.30
2023-03-05T09:06:03.076Z,31.57
2023-03-05T09:08:30.720Z,29.73
2023-03-05T09:10:57.758Z,32.67
2023-03-05T09:13:24.845Z,33.03
2023-03-05T09:16:00.286Z,29.90
2023-03-05T09:18:27.817Z,34.83
2023-03-05T09:20:54.937Z,31.77
2023-03-05T09:23:22.801Z,31.63
2023-03-05T09:25:50.188Z,28.67
2023-03-05T09:28:17.738Z,27.43
2023-03-05T09:30:44.587Z,23.90
2023-03-05T09:33:11.616Z,24.57
2023-03-05T09:35:38.592Z,27.83
2023-03-05T09:38:05.545Z,25.73
2023-03-05T09:40:44.241Z,27.70
2023-03-05T09:43:34.845Z,28.15
2023-03-05T09:46:40.153Z,28.53
2023-03-05T09:49:31.815Z,22.40
2023-03-05T09:52:18.273Z,23.63
2023-03-05T09:54:49.495Z,23.17
2023-03-05T09:57:22.664Z,23.17
2023-03-05T10:00:04.330Z,20.47
2023-03-05T10:02:46.261Z,23.40
2023-03-05T10:05:28.992Z,25.80
2023-03-05T10:08:01.269Z,23.57
2023-03-05T10:10:40.916Z,25.33
2023-03-05T10:13:17.073Z,22.10
2023-03-05T10:15:58.956Z,26.53
2023-03-05T10:18:59.856Z,27.70
2023-03-05T10:22:13.169Z,22.60
2023-03-05T10:24:51.915Z,33.28
2023-03-05T10:27:43.136Z,27.42
2023-03-05T10:30:24.007Z,21.38
2023-03-05T10:33:11.448Z,21.63
2023-03-05T10:36:01.354Z,20.27
2023-03-05T10:38:40.037Z,21.35
2023-03-05T10:41:19.091Z,20.60
2023-03-05T10:43:55.527Z,17.23
2023-03-05T10:46:28.364Z,21.83
2023-03-05T10:49:02.992Z,20.80
2023-03-05T10:51:48.106Z,21.85
2023-03-05T10:54:36.088Z,19.27
2023-03-05T10:57:03.791Z,19.55
2023-03-05T10:59:32.174Z,22.08
2023-03-05T11:02:05.763Z,20.03
2023-03-05T11:04:36.809Z,21.70
2023-03-05T11:07:27.132Z,23.60
2023-03-05T11:10:15.429Z,24.75
2023-03-05T11:12:42.829Z,21.40
2023-03-05T11:15:09.620Z,19.55
2023-03-05T11:17:39.690Z,20.33
2023-03-05T11:20:29.009Z,22.90
2023-03-05T11:23:06.042Z,20.63
2023-03-05T11:25:34.888Z,23.20
2023-03-05T11:28:04.368Z,21.05
2023-03-05T11:33:22.782Z,16.90
2023-03-05T11:35:52.053Z,20.23
2023-03-05T11:40:57.409Z,18.17
2023-03-05T11:43:26.239Z,15.80
2023-03-05T11:46:02.549Z,19.27
2023-03-05T11:48:35.246Z,16.53
2023-03-05T11:51:08.528Z,21.67
2023-03-05T11:53:37.360Z,22.38
2023-03-05T11:56:35.013Z,26.20
2023-03-05T11:59:34.936Z,22.95
2023-03-05T12:02:01.933Z,17.95
2023-03-05T12:04:32.706Z,19.52
2023-03-05T12:07:04.309Z,17.27
2023-03-05T12:09:42.204Z,17.10
2023-03-05T12:13:02.607Z,18.92
2023-03-05T12:16:05.006Z,19.25
2023-03-05T12:19:08.156Z,19.42
2023-03-05T12:21:43.350Z,16.75
2023-03-05T12:24:28.002Z,17.75
2023-03-05T12:27:08.516Z,14.90
2023-03-05T12:29:52.012Z,16.25
2023-03-05T12:32:34.124Z,16.00
2023-03-05T12:35:06.609Z,14.40
2023-03-05T12:37:33.885Z,17.33
2023-03-05T12:40:19.923Z,17.13
2023-03-05T12:42:48.138Z,16.63
2023-03-05T12:45:16.388Z,17.33
2023-03-05T12:47:45.367Z,16.10
2023-03-05T12:50:27.390Z,13.95
2023-03-05T12:52:56.218Z,15.25
2023-03-05T12:55:33.713Z,14.82
2023-03-05T12:58:23.978Z,14.35
2023-03-05T13:01:02.700Z,19.42
2023-03-05T13:03:35.641Z,18.35
2023-03-05T13:06:08.302Z,13.75
2023-03-05T13:08:37.482Z,18.25
2023-03-05T13:11:08.416Z,18.17
2023-03-05T13:13:43.492Z,19.27
2023-03-05T13:16:25.134Z,17.55
2023-03-05T13:18:54.254Z,17.50
2023-03-05T13:21:27.153Z,19.23
2023-03-05T13:23:59.571Z,16.50
2023-03-05T13:26:38.366Z,17.17
2023-03-05T13:29:14.340Z,18.92
2023-03-05T13:31:45.142Z,14.85
2023-03-05T13:34:20.713Z,18.23
2023-03-05T13:36:54.739Z,19.77
2023-03-05T13:39:26.257Z,14.55
2023-03-05T13:42:15.821Z,21.08
2023-03-05T13:44:42.938Z,17.17
2023-03-05T13:47:19.034Z,19.13
2023-03-05T13:49:47.542Z,20.65
2023-03-05T13:55:19.309Z,15.95
2023-03-05T13:57:51.126Z,23.73
2023-03-05T14:00:39.821Z,22.48
2023-03-05T14:03:22.877Z,20.85
2023-03-05T14:05:53.208Z,22.25
2023-03-05T14:08:26.681Z,19.38
2023-03-05T14:11:15.846Z,21.02
2023-03-05T14:13:44.041Z,21.65
2023-03-05T14:16:14.887Z,23.17
2023-03-05T14:19:00.535Z,21.70
2023-03-05T14:21:44.280Z,24.10
2023-03-05T14:24:23.737Z,23.30
2023-03-05T14:26:58.584Z,22.97
2023-03-05T14:29:27.614Z,20.70
2023-03-05T14:31:57.369Z,21.02
2023-03-05T14:34:32.382Z,24.03
2023-03-05T14:37:03.651Z,25.10
2023-03-05T14:39:41.424Z,24.77
2023-03-05T14:42:28.297Z,22.37
2023-03-05T14:44:56.901Z,29.83
2023-03-05T14:47:24.903Z,25.58
2023-03-05T14:49:52.064Z,23.00
2023-03-05T14:52:21.195Z,21.70
2023-03-05T14:54:48.558Z,19.25
2023-03-05T14:57:21.257Z,22.43
2023-03-05T14:59:48.523Z,20.00
2023-03-05T15:02:19.842Z,21.30
2023-03-05T15:04:47.681Z,21.07
2023-03-05T15:07:21.698Z,25.30
2023-03-05T15:09:48.714Z,18.20
2023-03-05T15:12:16.665Z,26.33
2023-03-05T15:14:44.091Z,24.27
2023-03-05T15:17:17.847Z,22.93
2023-03-05T15:19:46.064Z,22.43
2023-03-05T15:22:14.170Z,18.77
2023-03-05T15:24:41.822Z,25.13
2023-03-05T15:27:09.390Z,21.97
2023-03-05T15:29:36.228Z,22.70
2023-03-05T15:32:05.087Z,20.30
2023-03-05T15:34:34.397Z,20.42
2023-03-05T15:37:02.847Z,22.70
2023-03-05T15:39:30.118Z,17.30
2023-03-05T15:41:58.172Z,17.87
2023-03-05T15:44:25.422Z,17.90
2023-03-05T15:46:52.456Z,20.93
2023-03-05T15:49:23.358Z,21.50
2023-03-05T15:51:51.263Z,23.37
2023-03-05T15:54:19.610Z,23.07
2023-03-05T15:56:46.693Z,19.53
2023-03-05T15:59:14.512Z,22.63
2023-03-05T16:01:48.230Z,21.70
2023-03-05T16:04:16.576Z,23.43
2023-03-05T16:06:46.360Z,19.07
2023-03-05T16:09:14.077Z,19.23
2023-03-05T16:11:48.099Z,22.43
2023-03-05T16:14:20.089Z,28.07
2023-03-05T16:16:48.006Z,21.93
2023-03-05T16:19:18.976Z,21.23
2023-03-05T16:21:46.821Z,18.30
2023-03-05T16:24:16.060Z,24.47
2023-03-05T16:26:43.483Z,20.08
2023-03-05T16:29:11.874Z,19.80
2023-03-05T16:31:43.300Z,23.23
2023-03-05T16:34:14.225Z,23.20
2023-03-05T16:36:49.048Z,25.10
2023-03-05T16:39:16.051Z,20.13
2023-03-05T16:41:42.957Z,23.00
2023-03-05T16:44:11.053Z,22.00
2023-03-05T16:46:39.038Z,29.30
2023-03-05T16:49:05.996Z,22.87
2023-03-05T16:51:33.082Z,21.23
2023-03-05T16:54:02.030Z,24.33
2023-03-05T16:56:28.989Z,23.13
2023-03-05T16:58:56.642Z,24.83
2023-03-05T17:01:24.449Z,24.17
2023-03-05T17:03:52.705Z,21.53
2023-03-05T17:06:28.646Z,22.43
2023-03-05T17:08:56.564Z,19.70
2023-03-05T17:11:25.995Z,22.80
2023-03-05T17:13:54.082Z,22.07
2023-03-05T17:16:22.348Z,20.60
2023-03-05T17:18:49.577Z,18.07
2023-03-05T17:21:16.657Z,17.77
2023-03-05T17:23:45.476Z,18.17
2023-03-05T17:26:15.557Z,22.15
2023-03-05T17:28:44.500Z,18.77
2023-03-05T17:31:12.833Z,22.92
2023-03-05T17:33:41.762Z,17.20
2023-03-05T17:36:18.394Z,20.58
2023-03-05T17:38:46.646Z,20.30
2023-03-05T17:41:14.614Z,17.87
2023-03-05T17:43:41.954Z,19.13
2023-03-05T17:46:09.123Z,24.27
2023-03-05T17:48:39.452Z,18.70
2023-03-05T17:51:07.905Z,18.33
2023-03-05T17:53:35.623Z,19.00
2023-03-05T17:56:07.094Z,21.23
2023-03-05T17:58:34.041Z,21.13
2023-03-05T18:01:01.003Z,14.90
2023-03-05T18:03:28.070Z,19.87
2023-03-05T18:05:55.037Z,20.40
2023-03-05T18:08:22.022Z,15.23
2023-03-05T18:10:49.305Z,18.70
2023-03-05T18:13:16.744Z,18.53
2023-03-05T18:15:47.900Z,15.87
2023-03-05T18:18:18.957Z,16.67
2023-03-05T18:20:46.427Z,20.27
2023-03-05T18:23:13.350Z,15.53
2023-03-05T18:25:40.302Z,21.17
2023-03-05T18:28:13.179Z,14.40
2023-03-05T18:30:41.569Z,17.53
2023-03-05T18:33:13.828Z,16.27
2023-03-05T18:35:40.758Z,19.70
2023-03-05T18:38:08.189Z,19.13
2023-03-05T18:40:37.308Z,14.07
2023-03-05T18:43:05.484Z,16.98
2023-03-05T18:45:34.357Z,18.13
2023-03-05T18:48:01.838Z,19.85
2023-03-05T18:50:29.669Z,16.47
2023-03-05T18:52:56.784Z,20.97
2023-03-05T18:55:27.192Z,16.93
2023-03-05T18:57:54.336Z,19.20
2023-03-05T19:00:24.348Z,18.37
2023-03-05T19:02:51.811Z,22.67
2023-03-05T19:05:19.429Z,21.03
2023-03-05T19:07:47.256Z,22.00
2023-03-05T19:10:15.724Z,19.00
2023-03-05T19:13:05.773Z,17.33
2023-03-05T19:15:43.229Z,17.50
2023-03-05T19:18:10.384Z,17.77
2023-03-05T19:20:37.757Z,19.77
2023-03-05T19:23:04.603Z,21.53
2023-03-05T19:25:31.849Z,16.70
2023-03-05T19:27:58.659Z,18.47
2023-03-05T19:30:25.564Z,17.70
2023-03-05T19:32:52.422Z,18.77
2023-03-05T19:35:19.357Z,21.03
2023-03-05T19:37:46.673Z,16.83
2023-03-05T19:40:15.077Z,17.57
2023-03-05T19:42:42.395Z,18.90
2023-03-05T19:45:10.134Z,23.07
2023-03-05T19:47:37.124Z,17.70
2023-03-05T19:50:05.617Z,20.73
2023-03-05T19:52:33.565Z,21.97
2023-03-05T19:55:00.818Z,20.83
2023-03-05T19:57:27.767Z,20.23
2023-03-05T19:59:54.573Z,21.40
2023-03-05T20:02:22.066Z,18.77
2023-03-05T20:04:49.648Z,19.30
2023-03-05T20:07:16.965Z,21.63
2023-03-05T20:09:43.969Z,21.00
2023-03-05T20:12:10.923Z,21.23
2023-03-05T20:14:38.049Z,24.30
2023-03-05T20:17:04.905Z,22.30
2023-03-05T20:19:32.004Z,24.53
2023-03-05T20:22:02.128Z,23.63
2023-03-05T20:24:29.075Z,20.73
2023-03-05T20:26:56.008Z,20.70
2023-03-05T20:29:22.872Z,21.73
2023-03-05T20:31:50.380Z,24.20
2023-03-05T20:34:19.055Z,22.90
2023-03-05T20:36:46.726Z,27.60
2023-03-05T20:39:13.708Z,21.53
2023-03-05T20:41:40.986Z,22.63
2023-03-05T20:44:08.759Z,19.13
2023-03-05T20:46:49.771Z,18.00
2023-03-05T20:49:19.931Z,21.80
2023-03-05T20:51:49.321Z,22.47
2023-03-05T20:54:16.318Z,18.58
2023-03-05T20:56:44.009Z,22.73
2023-03-05T20:59:11.490Z,23.87
2023-03-05T21:01:41.018Z,25.97
2023-03-05T21:04:08.963Z,25.50
2023-03-05T21:06:36.403Z,23.00
2023-03-05T21:09:04.216Z,21.57
2023-03-05T21:11:32.195Z,22.43
2023-03-05T21:13:59.508Z,20.80
2023-03-05T21:16:27.551Z,22.27
2023-03-05T21:18:56.131Z,21.73
2023-03-05T21:21:24.098Z,21.07
2023-03-05T21:23:51.386Z,17.03
2023-03-05T21:26:18.292Z,21.17
2023-03-05T21:28:46.578Z,21.33
2023-03-05T21:31:23.402Z,23.63
2023-03-05T21:33:51.524Z,22.33
2023-03-05T21:36:18.998Z,22.83
2023-03-05T21:38:47.294Z,22.60
2023-03-05T21:41:14.508Z,17.63
2023-03-05T21:43:43.175Z,19.37
2023-03-05T21:46:11.368Z,16.13
2023-03-05T21:48:38.487Z,20.17
2023-03-05T21:51:51.198Z,20.53
2023-03-05T21:54:18.096Z,19.80
2023-03-05T21:56:45.899Z,16.80
2023-03-05T21:59:12.939Z,16.03
2023-03-05T22:01:39.804Z,18.30
2023-03-05T22:04:06.694Z,17.43
2023-03-05T22:06:33.893Z,19.77
2023-03-05T22:09:01.216Z,16.57
2023-03-05T22:11:29.488Z,19.40
2023-03-05T22:13:57.156Z,21.27
2023-03-05T22:16:26.322Z,25.33
2023-03-05T22:18:53.576Z,20.30
2023-03-05T22:21:25.392Z,20.13
2023-03-05T22:23:54.344Z,20.50
2023-03-05T22:26:21.541Z,15.60
2023-03-05T22:28:48.384Z,18.07
2023-03-05T22:31:27.462Z,17.27
2023-03-05T22:33:54.676Z,19.75
2023-03-05T22:36:21.647Z,17.00
2023-03-05T22:38:48.528Z,20.00
2023-03-05T22:41:19.842Z,19.03
2023-03-05T22:43:47.526Z,21.67
2023-03-05T22:46:15.624Z,17.93
2023-03-05T22:48:43.428Z,22.27
2023-03-05T22:51:11.478Z,21.43
2023-03-05T22:53:39.594Z,22.13
2023-03-05T22:56:12.752Z,25.97
2023-03-05T22:58:40.263Z,24.50
2023-03-05T23:01:18.152Z,24.83
2023-03-05T23:04:11.468Z,33.70
2023-03-05T23:06:51.238Z,33.47
2023-03-05T23:09:18.139Z,28.13
2023-03-05T23:11:44.992Z,18.50
2023-03-05T23:14:12.067Z,17.23
2023-03-05T23:16:39.140Z,19.43
2023-03-05T23:19:05.995Z,18.40
2023-03-05T23:21:33.103Z,21.60
2023-03-05T23:24:00.034Z,21.90
2023-03-05T23:26:26.934Z,21.20
2023-03-05T23:28:53.772Z,19.93
2023-03-05T23:31:20.800Z,25.33
2023-03-05T23:33:47.684Z,17.93
2023-03-05T23:36:14.586Z,21.30
2023-03-05T23:38:41.838Z,19.27
2023-03-05T23:41:09.690Z,18.93
2023-03-05T23:43:36.587Z,17.23
2023-03-05T23:46:03.505Z,18.80
2023-03-05T23:48:31.147Z,17.20
2023-03-05T23:50:58.115Z,17.70
2023-03-05T23:53:27.825Z,21.57
2023-03-05T23:55:56.069Z,21.83
2023-03-05T23:58:24.146Z,19.97
